Aérodrome :
LOGIN :

S'inscrire | Disclaimer

   EN    FR    IT 

 










Légende :    VFR   VFR Marginal   IFR   IFR Intensif   IFR Très Intensif
Visi : 
Plafond : 
>= 8 km
>= 3000ft
5 à 8 km
1000 à 3000 ft
1500m à 5 km
500 à 1000 ft
800 à 1500m
200 à 500 ft
< 800m
< 200 ft
Symboles :   Orages  Brouillard  Fortes neiges  Fortes précipitations  Vent > 20 kt
SIGMETs :   Divers  Orages  Givrage  Turbulence  Onde Orograph.  Cendres Volcan.






- Altitude de l'aérodrome : 287 ft


LFRL - Lanveoc Poulmic

DERNIER METAR :
  • 180630Z AUTO 25014KT 9999 FEW027/// SCT034/// BKN054/// ///CB 12/09 Q1006 TEMPO 23016G30KT 4000 SHRA

METARs EXPIRÉS :
  • 180600Z AUTO 24012KT 9999 FEW033/// BKN052/// BKN066/// ///CB 13/08 Q1006 TEMPO 23016G30KT 4000 SHRA
  • 180530Z AUTO 25014KT 9999 SCT029 BKN037 BKN045 13/08 Q1006 TEMPO 23016G30KT 4000 SHRA SCT015CB SCT020TCU
  • 180500Z AUTO 25013KT 9999 FEW032 SCT038 12/08 Q1005
  • 180430Z AUTO 25016KT 9999 FEW026 12/08 Q1005
  • 180400Z AUTO 25013KT CAVOK 11/07 Q1005

TAF TAF LFRL
Valide du 18 à 06h jusqu'au 19 à 06h UTC


180500Z 1806/1906 23015G25KT 9999 SCT020 SCT035
TEMPO 1806/1818 23016G30KT 4000 SHRA SCT015CB SCT020TCU
TEMPO 1818/1906 2000 SHRA BKN008 BKN010CB
BECMG 1904/1906 26010KT



MET'MAP, la Météo Aéronautique d'un coup d'oeil ! - Copyright ORBIFLY Décembre 2007 - Disclaimer

ORBIFLY MET'MAP TEAM :

Programmation & Développement : Alexandra Zaïnal
Conception & Développement : Baudouin d'Aumeries
Co-Programmation & Développement : Marc-Olivier Méhu
Soutien technique & logistique : Manuel Goepfert

Contact : metmap@orbifly.com




SOURCES & CREDITS :

   NOAA